sensor_id;sensor_type;location;lat;lon;timestamp;P1;durP1;ratioP1;P2;durP2;ratioP2
18146;SDS011;9199;48.832;9.182;2023-09-12T00:01:35;16.77;;;9.73;;
18146;SDS011;9199;48.832;9.182;2023-09-12T00:04:01;16.50;;;10.00;;
18146;SDS011;9199;48.832;9.182;2023-09-12T00:06:31;16.38;;;10.05;;
18146;SDS011;9199;48.832;9.182;2023-09-12T00:08:58;14.20;;;9.90;;
18146;SDS011;9199;48.832;9.182;2023-09-12T00:11:26;16.30;;;10.00;;
18146;SDS011;9199;48.832;9.182;2023-09-12T00:13:52;17.43;;;10.10;;
18146;SDS011;9199;48.832;9.182;2023-09-12T00:16:19;17.52;;;9.80;;
18146;SDS011;9199;48.832;9.182;2023-09-12T00:18:47;19.30;;;10.25;;
18146;SDS011;9199;48.832;9.182;2023-09-12T00:21:14;18.67;;;9.70;;
18146;SDS011;9199;48.832;9.182;2023-09-12T00:23:40;14.18;;;9.60;;
18146;SDS011;9199;48.832;9.182;2023-09-12T00:26:07;14.33;;;9.33;;
18146;SDS011;9199;48.832;9.182;2023-09-12T00:28:34;15.18;;;8.98;;
18146;SDS011;9199;48.832;9.182;2023-09-12T00:31:02;18.48;;;9.02;;
18146;SDS011;9199;48.832;9.182;2023-09-12T00:33:29;16.02;;;10.07;;
18146;SDS011;9199;48.832;9.182;2023-09-12T00:35:57;17.52;;;10.15;;
18146;SDS011;9199;48.832;9.182;2023-09-12T00:38:24;17.33;;;10.20;;
18146;SDS011;9199;48.832;9.182;2023-09-12T00:40:50;14.73;;;9.60;;
18146;SDS011;9199;48.832;9.182;2023-09-12T00:43:17;14.38;;;10.38;;
18146;SDS011;9199;48.832;9.182;2023-09-12T00:45:44;15.80;;;9.70;;
18146;SDS011;9199;48.832;9.182;2023-09-12T00:48:10;15.23;;;9.48;;
18146;SDS011;9199;48.832;9.182;2023-09-12T00:50:39;16.00;;;9.33;;
18146;SDS011;9199;48.832;9.182;2023-09-12T00:53:08;15.98;;;9.93;;
18146;SDS011;9199;48.832;9.182;2023-09-12T00:55:35;15.02;;;9.63;;
18146;SDS011;9199;48.832;9.182;2023-09-12T00:58:05;16.27;;;9.88;;
18146;SDS011;9199;48.832;9.182;2023-09-12T01:00:33;15.60;;;9.60;;
18146;SDS011;9199;48.832;9.182;2023-09-12T01:03:00;15.23;;;10.07;;
18146;SDS011;9199;48.832;9.182;2023-09-12T02:02:44;18.02;;;9.95;;
18146;SDS011;9199;48.832;9.182;2023-09-12T02:05:11;18.90;;;9.95;;
18146;SDS011;9199;48.832;9.182;2023-09-12T02:07:43;15.50;;;10.13;;
18146;SDS011;9199;48.832;9.182;2023-09-12T02:10:10;15.88;;;9.68;;
18146;SDS011;9199;48.832;9.182;2023-09-12T02:12:37;18.67;;;10.00;;
18146;SDS011;9199;48.832;9.182;2023-09-12T02:15:04;18.08;;;9.85;;
18146;SDS011;9199;48.832;9.182;2023-09-12T02:17:32;17.92;;;9.80;;
18146;SDS011;9199;48.832;9.182;2023-09-12T02:20:00;15.87;;;10.13;;
18146;SDS011;9199;48.832;9.182;2023-09-12T02:22:28;19.73;;;9.82;;
18146;SDS011;9199;48.832;9.182;2023-09-12T02:24:54;19.00;;;10.60;;
18146;SDS011;9199;48.832;9.182;2023-09-12T02:27:21;17.23;;;9.32;;
18146;SDS011;9199;48.832;9.182;2023-09-12T02:29:48;17.27;;;10.60;;
18146;SDS011;9199;48.832;9.182;2023-09-12T02:32:14;17.93;;;10.20;;
18146;SDS011;9199;48.832;9.182;2023-09-12T02:34:41;16.27;;;10.45;;
18146;SDS011;9199;48.832;9.182;2023-09-12T02:37:09;15.70;;;9.40;;
18146;SDS011;9199;48.832;9.182;2023-09-12T02:39:36;17.85;;;10.07;;
18146;SDS011;9199;48.832;9.182;2023-09-12T02:42:03;16.42;;;9.13;;
18146;SDS011;9199;48.832;9.182;2023-09-12T02:44:30;13.80;;;9.60;;
18146;SDS011;9199;48.832;9.182;2023-09-12T02:46:56;17.30;;;9.52;;
18146;SDS011;9199;48.832;9.182;2023-09-12T02:49:23;16.45;;;9.75;;
18146;SDS011;9199;48.832;9.182;2023-09-12T02:51:50;19.30;;;8.82;;
18146;SDS011;9199;48.832;9.182;2023-09-12T02:54:18;22.17;;;9.73;;
18146;SDS011;9199;48.832;9.182;2023-09-12T02:56:45;16.77;;;9.63;;
18146;SDS011;9199;48.832;9.182;2023-09-12T02:59:11;14.25;;;9.80;;
18146;SDS011;9199;48.832;9.182;2023-09-12T03:01:38;15.85;;;9.63;;
18146;SDS011;9199;48.832;9.182;2023-09-12T03:04:05;17.00;;;9.10;;
18146;SDS011;9199;48.832;9.182;2023-09-12T03:06:31;19.48;;;10.02;;
18146;SDS011;9199;48.832;9.182;2023-09-12T03:08:58;17.80;;;10.00;;
18146;SDS011;9199;48.832;9.182;2023-09-12T03:11:27;18.67;;;10.25;;
18146;SDS011;9199;48.832;9.182;2023-09-12T03:13:54;18.70;;;9.85;;
18146;SDS011;9199;48.832;9.182;2023-09-12T03:16:21;16.02;;;9.75;;
18146;SDS011;9199;48.832;9.182;2023-09-12T03:18:49;22.75;;;10.27;;
18146;SDS011;9199;48.832;9.182;2023-09-12T03:21:16;18.37;;;10.50;;
18146;SDS011;9199;48.832;9.182;2023-09-12T03:23:42;18.83;;;10.20;;
18146;SDS011;9199;48.832;9.182;2023-09-12T03:26:09;17.98;;;10.23;;
18146;SDS011;9199;48.832;9.182;2023-09-12T03:28:37;14.65;;;9.68;;
18146;SDS011;9199;48.832;9.182;2023-09-12T03:31:07;18.73;;;9.82;;
18146;SDS011;9199;48.832;9.182;2023-09-12T03:33:36;14.50;;;9.60;;
18146;SDS011;9199;48.832;9.182;2023-09-12T03:36:03;16.13;;;10.00;;
18146;SDS011;9199;48.832;9.182;2023-09-12T03:38:31;19.63;;;9.45;;
18146;SDS011;9199;48.832;9.182;2023-09-12T03:40:58;14.80;;;9.88;;
18146;SDS011;9199;48.832;9.182;2023-09-12T03:43:24;16.95;;;10.05;;
18146;SDS011;9199;48.832;9.182;2023-09-12T03:45:52;16.10;;;9.80;;
18146;SDS011;9199;48.832;9.182;2023-09-12T03:48:19;14.98;;;9.55;;
18146;SDS011;9199;48.832;9.182;2023-09-12T03:50:46;16.88;;;10.38;;
18146;SDS011;9199;48.832;9.182;2023-09-12T03:53:13;19.20;;;10.07;;
18146;SDS011;9199;48.832;9.182;2023-09-12T03:55:41;16.17;;;9.95;;
18146;SDS011;9199;48.832;9.182;2023-09-12T03:58:08;15.90;;;9.30;;
18146;SDS011;9199;48.832;9.182;2023-09-12T04:00:34;19.63;;;10.35;;
18146;SDS011;9199;48.832;9.182;2023-09-12T04:03:03;15.52;;;9.88;;
18146;SDS011;9199;48.832;9.182;2023-09-12T04:05:30;16.33;;;9.38;;
18146;SDS011;9199;48.832;9.182;2023-09-12T04:07:56;17.50;;;9.68;;
18146;SDS011;9199;48.832;9.182;2023-09-12T04:10:23;16.13;;;9.67;;
18146;SDS011;9199;48.832;9.182;2023-09-12T04:12:50;16.48;;;10.02;;
18146;SDS011;9199;48.832;9.182;2023-09-12T04:15:17;13.82;;;9.35;;
18146;SDS011;9199;48.832;9.182;2023-09-12T04:17:43;18.13;;;9.93;;
18146;SDS011;9199;48.832;9.182;2023-09-12T04:20:12;17.27;;;9.32;;
18146;SDS011;9199;48.832;9.182;2023-09-12T04:22:39;17.17;;;9.57;;
18146;SDS011;9199;48.832;9.182;2023-09-12T04:25:06;17.85;;;9.88;;
18146;SDS011;9199;48.832;9.182;2023-09-12T04:27:33;16.60;;;9.88;;
18146;SDS011;9199;48.832;9.182;2023-09-12T04:30:00;15.75;;;9.48;;
18146;SDS011;9199;48.832;9.182;2023-09-12T04:32:27;16.55;;;9.55;;
18146;SDS011;9199;48.832;9.182;2023-09-12T04:34:54;17.73;;;9.73;;
18146;SDS011;9199;48.832;9.182;2023-09-12T04:37:23;17.20;;;9.98;;
18146;SDS011;9199;48.832;9.182;2023-09-12T04:39:49;17.48;;;10.15;;
18146;SDS011;9199;48.832;9.182;2023-09-12T04:42:16;17.83;;;9.55;;
18146;SDS011;9199;48.832;9.182;2023-09-12T04:44:43;17.27;;;9.77;;
18146;SDS011;9199;48.832;9.182;2023-09-12T04:47:10;14.90;;;9.23;;
18146;SDS011;9199;48.832;9.182;2023-09-12T04:49:37;16.42;;;9.35;;
18146;SDS011;9199;48.832;9.182;2023-09-12T04:52:04;17.42;;;9.35;;
18146;SDS011;9199;48.832;9.182;2023-09-12T04:54:33;17.75;;;9.07;;
18146;SDS011;9199;48.832;9.182;2023-09-12T04:56:59;16.25;;;9.15;;
18146;SDS011;9199;48.832;9.182;2023-09-12T04:59:26;17.60;;;9.63;;
18146;SDS011;9199;48.832;9.182;2023-09-12T05:01:53;16.40;;;9.32;;
18146;SDS011;9199;48.832;9.182;2023-09-12T05:04:20;16.98;;;9.40;;
18146;SDS011;9199;48.832;9.182;2023-09-12T05:06:46;13.75;;;9.20;;
18146;SDS011;9199;48.832;9.182;2023-09-12T05:09:13;15.70;;;9.75;;
18146;SDS011;9199;48.832;9.182;2023-09-12T05:11:42;15.63;;;9.10;;
18146;SDS011;9199;48.832;9.182;2023-09-12T05:14:09;14.45;;;9.65;;
18146;SDS011;9199;48.832;9.182;2023-09-12T05:16:36;16.65;;;9.45;;
18146;SDS011;9199;48.832;9.182;2023-09-12T05:19:02;17.20;;;9.05;;
18146;SDS011;9199;48.832;9.182;2023-09-12T05:21:29;14.68;;;9.27;;
18146;SDS011;9199;48.832;9.182;2023-09-12T05:23:56;16.97;;;9.73;;
18146;SDS011;9199;48.832;9.182;2023-09-12T05:26:22;14.85;;;9.60;;
18146;SDS011;9199;48.832;9.182;2023-09-12T05:28:50;14.68;;;9.02;;
18146;SDS011;9199;48.832;9.182;2023-09-12T05:31:17;16.42;;;9.73;;
18146;SDS011;9199;48.832;9.182;2023-09-12T05:33:44;14.33;;;8.63;;
18146;SDS011;9199;48.832;9.182;2023-09-12T05:36:11;14.23;;;8.90;;
18146;SDS011;9199;48.832;9.182;2023-09-12T05:38:37;15.88;;;8.95;;
18146;SDS011;9199;48.832;9.182;2023-09-12T05:41:04;17.15;;;8.77;;
18146;SDS011;9199;48.832;9.182;2023-09-12T05:43:31;17.85;;;9.40;;
18146;SDS011;9199;48.832;9.182;2023-09-12T05:45:59;14.60;;;8.83;;
18146;SDS011;9199;48.832;9.182;2023-09-12T05:48:25;14.77;;;9.10;;
18146;SDS011;9199;48.832;9.182;2023-09-12T05:50:52;19.73;;;9.40;;
18146;SDS011;9199;48.832;9.182;2023-09-12T05:53:19;17.85;;;9.27;;
18146;SDS011;9199;48.832;9.182;2023-09-12T05:55:45;15.13;;;8.98;;
18146;SDS011;9199;48.832;9.182;2023-09-12T05:58:12;14.00;;;8.53;;
18146;SDS011;9199;48.832;9.182;2023-09-12T06:00:39;15.93;;;8.52;;
18146;SDS011;9199;48.832;9.182;2023-09-12T06:03:07;15.18;;;9.07;;
18146;SDS011;9199;48.832;9.182;2023-09-12T06:05:34;17.20;;;9.27;;
18146;SDS011;9199;48.832;9.182;2023-09-12T06:08:01;15.15;;;8.30;;
18146;SDS011;9199;48.832;9.182;2023-09-12T06:10:29;16.73;;;8.63;;
18146;SDS011;9199;48.832;9.182;2023-09-12T06:12:56;15.10;;;8.50;;
18146;SDS011;9199;48.832;9.182;2023-09-12T06:15:22;13.77;;;8.45;;
18146;SDS011;9199;48.832;9.182;2023-09-12T06:17:49;16.80;;;8.30;;
18146;SDS011;9199;48.832;9.182;2023-09-12T06:20:17;13.90;;;8.20;;
18146;SDS011;9199;48.832;9.182;2023-09-12T06:22:44;13.90;;;8.43;;
18146;SDS011;9199;48.832;9.182;2023-09-12T06:25:10;16.08;;;8.60;;
18146;SDS011;9199;48.832;9.182;2023-09-12T06:27:37;16.75;;;8.98;;
18146;SDS011;9199;48.832;9.182;2023-09-12T06:30:04;17.00;;;8.95;;
18146;SDS011;9199;48.832;9.182;2023-09-12T06:32:32;16.33;;;9.25;;
18146;SDS011;9199;48.832;9.182;2023-09-12T06:34:59;16.10;;;8.87;;
18146;SDS011;9199;48.832;9.182;2023-09-12T06:37:27;19.05;;;9.38;;
18146;SDS011;9199;48.832;9.182;2023-09-12T06:39:53;17.15;;;9.18;;
18146;SDS011;9199;48.832;9.182;2023-09-12T06:42:20;15.07;;;9.27;;
18146;SDS011;9199;48.832;9.182;2023-09-12T06:44:47;18.15;;;9.93;;
18146;SDS011;9199;48.832;9.182;2023-09-12T06:47:13;21.43;;;9.63;;
18146;SDS011;9199;48.832;9.182;2023-09-12T06:49:40;18.58;;;10.15;;
18146;SDS011;9199;48.832;9.182;2023-09-12T06:52:07;14.80;;;8.40;;
18146;SDS011;9199;48.832;9.182;2023-09-12T06:54:35;14.02;;;9.02;;
18146;SDS011;9199;48.832;9.182;2023-09-12T06:57:02;15.13;;;9.75;;
18146;SDS011;9199;48.832;9.182;2023-09-12T06:59:29;21.33;;;10.17;;
18146;SDS011;9199;48.832;9.182;2023-09-12T07:01:56;18.35;;;9.30;;
18146;SDS011;9199;48.832;9.182;2023-09-12T07:04:23;18.05;;;9.88;;
18146;SDS011;9199;48.832;9.182;2023-09-12T07:06:50;17.75;;;9.65;;
18146;SDS011;9199;48.832;9.182;2023-09-12T07:09:17;19.95;;;9.75;;
18146;SDS011;9199;48.832;9.182;2023-09-12T07:11:47;18.20;;;10.00;;
18146;SDS011;9199;48.832;9.182;2023-09-12T07:14:14;18.70;;;10.35;;
18146;SDS011;9199;48.832;9.182;2023-09-12T07:16:40;19.25;;;10.15;;
18146;SDS011;9199;48.832;9.182;2023-09-12T07:19:07;19.17;;;9.45;;
18146;SDS011;9199;48.832;9.182;2023-09-12T07:21:35;20.50;;;10.10;;
18146;SDS011;9199;48.832;9.182;2023-09-12T07:24:01;19.03;;;9.60;;
18146;SDS011;9199;48.832;9.182;2023-09-12T07:26:29;16.25;;;8.68;;
18146;SDS011;9199;48.832;9.182;2023-09-12T07:28:57;17.98;;;9.32;;
18146;SDS011;9199;48.832;9.182;2023-09-12T07:31:27;16.65;;;9.52;;
18146;SDS011;9199;48.832;9.182;2023-09-12T07:33:54;16.17;;;9.43;;
18146;SDS011;9199;48.832;9.182;2023-09-12T07:36:21;16.90;;;8.97;;
18146;SDS011;9199;48.832;9.182;2023-09-12T07:38:47;18.23;;;9.00;;
18146;SDS011;9199;48.832;9.182;2023-09-12T07:41:14;17.15;;;9.77;;
18146;SDS011;9199;48.832;9.182;2023-09-12T07:43:41;17.38;;;9.45;;
18146;SDS011;9199;48.832;9.182;2023-09-12T07:46:09;18.98;;;9.70;;
18146;SDS011;9199;48.832;9.182;2023-09-12T07:48:37;17.20;;;9.50;;
18146;SDS011;9199;48.832;9.182;2023-09-12T07:51:10;17.05;;;9.27;;
18146;SDS011;9199;48.832;9.182;2023-09-12T07:53:37;17.60;;;10.05;;
18146;SDS011;9199;48.832;9.182;2023-09-12T07:56:04;16.13;;;8.95;;
18146;SDS011;9199;48.832;9.182;2023-09-12T07:58:31;15.15;;;8.50;;
18146;SDS011;9199;48.832;9.182;2023-09-12T08:00:57;14.80;;;8.50;;
18146;SDS011;9199;48.832;9.182;2023-09-12T08:03:25;15.35;;;8.35;;
18146;SDS011;9199;48.832;9.182;2023-09-12T08:05:55;12.60;;;7.90;;
18146;SDS011;9199;48.832;9.182;2023-09-12T08:08:22;16.48;;;9.02;;
18146;SDS011;9199;48.832;9.182;2023-09-12T08:10:49;17.60;;;8.98;;
18146;SDS011;9199;48.832;9.182;2023-09-12T08:13:16;15.30;;;8.53;;
18146;SDS011;9199;48.832;9.182;2023-09-12T08:15:42;14.10;;;8.52;;
18146;SDS011;9199;48.832;9.182;2023-09-12T08:18:09;16.52;;;8.55;;
18146;SDS011;9199;48.832;9.182;2023-09-12T08:20:38;14.85;;;8.20;;
18146;SDS011;9199;48.832;9.182;2023-09-12T08:23:04;16.15;;;8.75;;
18146;SDS011;9199;48.832;9.182;2023-09-12T08:25:32;15.60;;;7.97;;
18146;SDS011;9199;48.832;9.182;2023-09-12T08:27:59;18.80;;;8.75;;
18146;SDS011;9199;48.832;9.182;2023-09-12T08:30:26;12.88;;;7.85;;
18146;SDS011;9199;48.832;9.182;2023-09-12T08:32:54;13.57;;;8.60;;
18146;SDS011;9199;48.832;9.182;2023-09-12T08:35:21;14.52;;;8.25;;
18146;SDS011;9199;48.832;9.182;2023-09-12T08:37:49;13.47;;;8.43;;
18146;SDS011;9199;48.832;9.182;2023-09-12T08:40:16;23.98;;;8.82;;
18146;SDS011;9199;48.832;9.182;2023-09-12T08:42:43;16.23;;;8.55;;
18146;SDS011;9199;48.832;9.182;2023-09-12T08:45:12;17.77;;;8.98;;
18146;SDS011;9199;48.832;9.182;2023-09-12T08:47:41;16.92;;;9.55;;
18146;SDS011;9199;48.832;9.182;2023-09-12T08:50:10;21.33;;;8.67;;
18146;SDS011;9199;48.832;9.182;2023-09-12T08:52:39;17.38;;;8.77;;
18146;SDS011;9199;48.832;9.182;2023-09-12T08:55:08;14.50;;;8.57;;
18146;SDS011;9199;48.832;9.182;2023-09-12T08:57:35;14.15;;;8.77;;
18146;SDS011;9199;48.832;9.182;2023-09-12T09:00:04;17.10;;;8.60;;
18146;SDS011;9199;48.832;9.182;2023-09-12T09:02:34;15.50;;;8.50;;
18146;SDS011;9199;48.832;9.182;2023-09-12T09:05:01;18.15;;;9.02;;
18146;SDS011;9199;48.832;9.182;2023-09-12T09:07:30;15.65;;;9.00;;
18146;SDS011;9199;48.832;9.182;2023-09-12T09:09:57;16.00;;;8.55;;
18146;SDS011;9199;48.832;9.182;2023-09-12T09:12:26;17.00;;;9.40;;
18146;SDS011;9199;48.832;9.182;2023-09-12T09:14:53;10.57;;;8.00;;
18146;SDS011;9199;48.832;9.182;2023-09-12T09:17:20;14.43;;;8.68;;
18146;SDS011;9199;48.832;9.182;2023-09-12T09:19:47;18.83;;;8.57;;
18146;SDS011;9199;48.832;9.182;2023-09-12T09:22:13;15.50;;;8.15;;
18146;SDS011;9199;48.832;9.182;2023-09-12T09:24:40;14.57;;;7.85;;
18146;SDS011;9199;48.832;9.182;2023-09-12T09:27:07;12.27;;;7.67;;
18146;SDS011;9199;48.832;9.182;2023-09-12T09:29:46;15.77;;;8.30;;
18146;SDS011;9199;48.832;9.182;2023-09-12T09:32:16;14.38;;;8.18;;
18146;SDS011;9199;48.832;9.182;2023-09-12T09:34:44;17.90;;;7.53;;
18146;SDS011;9199;48.832;9.182;2023-09-12T09:37:11;14.68;;;7.82;;
18146;SDS011;9199;48.832;9.182;2023-09-12T09:39:40;12.47;;;7.10;;
18146;SDS011;9199;48.832;9.182;2023-09-12T09:42:09;12.73;;;7.40;;
18146;SDS011;9199;48.832;9.182;2023-09-12T09:44:37;11.90;;;7.32;;
18146;SDS011;9199;48.832;9.182;2023-09-12T09:47:05;14.38;;;6.93;;
18146;SDS011;9199;48.832;9.182;2023-09-12T09:49:34;11.70;;;7.38;;
18146;SDS011;9199;48.832;9.182;2023-09-12T09:52:02;15.20;;;7.20;;
18146;SDS011;9199;48.832;9.182;2023-09-12T09:54:30;13.73;;;7.10;;
18146;SDS011;9199;48.832;9.182;2023-09-12T09:56:57;9.65;;;6.78;;
18146;SDS011;9199;48.832;9.182;2023-09-12T09:59:24;12.25;;;6.68;;
18146;SDS011;9199;48.832;9.182;2023-09-12T10:01:53;10.88;;;6.50;;
18146;SDS011;9199;48.832;9.182;2023-09-12T10:04:24;11.67;;;6.70;;
18146;SDS011;9199;48.832;9.182;2023-09-12T10:06:55;14.65;;;6.82;;
18146;SDS011;9199;48.832;9.182;2023-09-12T10:09:25;10.82;;;6.32;;
18146;SDS011;9199;48.832;9.182;2023-09-12T10:11:53;11.48;;;6.57;;
18146;SDS011;9199;48.832;9.182;2023-09-12T10:14:21;11.32;;;6.57;;
18146;SDS011;9199;48.832;9.182;2023-09-12T10:16:50;12.97;;;6.40;;
18146;SDS011;9199;48.832;9.182;2023-09-12T10:19:20;13.80;;;6.80;;
18146;SDS011;9199;48.832;9.182;2023-09-12T10:21:53;10.82;;;7.35;;
18146;SDS011;9199;48.832;9.182;2023-09-12T10:24:24;10.95;;;7.00;;
18146;SDS011;9199;48.832;9.182;2023-09-12T10:26:53;11.32;;;6.65;;
18146;SDS011;9199;48.832;9.182;2023-09-12T10:29:21;11.17;;;6.80;;
18146;SDS011;9199;48.832;9.182;2023-09-12T10:31:48;11.00;;;6.35;;
18146;SDS011;9199;48.832;9.182;2023-09-12T10:34:15;10.38;;;6.63;;
18146;SDS011;9199;48.832;9.182;2023-09-12T10:36:43;9.68;;;7.20;;
18146;SDS011;9199;48.832;9.182;2023-09-12T10:39:12;11.68;;;7.38;;
18146;SDS011;9199;48.832;9.182;2023-09-12T10:41:40;12.10;;;6.70;;
18146;SDS011;9199;48.832;9.182;2023-09-12T10:44:09;13.07;;;6.55;;
18146;SDS011;9199;48.832;9.182;2023-09-12T10:46:37;11.88;;;6.55;;
18146;SDS011;9199;48.832;9.182;2023-09-12T10:49:06;9.52;;;6.43;;
18146;SDS011;9199;48.832;9.182;2023-09-12T10:51:34;11.23;;;6.50;;
18146;SDS011;9199;48.832;9.182;2023-09-12T10:54:04;10.00;;;6.13;;
18146;SDS011;9199;48.832;9.182;2023-09-12T10:56:33;12.77;;;6.95;;
18146;SDS011;9199;48.832;9.182;2023-09-12T10:59:10;9.52;;;6.93;;
18146;SDS011;9199;48.832;9.182;2023-09-12T11:01:38;11.98;;;6.30;;
18146;SDS011;9199;48.832;9.182;2023-09-12T11:06:59;9.90;;;6.33;;
18146;SDS011;9199;48.832;9.182;2023-09-12T11:09:25;8.45;;;6.05;;
18146;SDS011;9199;48.832;9.182;2023-09-12T11:11:55;13.52;;;6.80;;
18146;SDS011;9199;48.832;9.182;2023-09-12T11:14:25;10.75;;;6.35;;
18146;SDS011;9199;48.832;9.182;2023-09-12T11:19:48;9.60;;;6.30;;
18146;SDS011;9199;48.832;9.182;2023-09-12T11:22:20;10.75;;;6.00;;
18146;SDS011;9199;48.832;9.182;2023-09-12T11:24:51;11.13;;;6.10;;
18146;SDS011;9199;48.832;9.182;2023-09-12T11:27:19;9.70;;;5.85;;
18146;SDS011;9199;48.832;9.182;2023-09-12T11:29:47;10.95;;;6.20;;
18146;SDS011;9199;48.832;9.182;2023-09-12T11:32:24;10.57;;;5.70;;
18146;SDS011;9199;48.832;9.182;2023-09-12T11:34:52;12.38;;;6.22;;
18146;SDS011;9199;48.832;9.182;2023-09-12T11:37:23;9.10;;;6.05;;
18146;SDS011;9199;48.832;9.182;2023-09-12T11:39:50;8.77;;;5.43;;
18146;SDS011;9199;48.832;9.182;2023-09-12T11:42:17;9.65;;;6.10;;
18146;SDS011;9199;48.832;9.182;2023-09-12T11:44:48;11.10;;;6.60;;
18146;SDS011;9199;48.832;9.182;2023-09-12T11:47:15;11.57;;;6.60;;
18146;SDS011;9199;48.832;9.182;2023-09-12T11:49:42;12.52;;;6.72;;
18146;SDS011;9199;48.832;9.182;2023-09-12T11:52:09;11.60;;;6.68;;
18146;SDS011;9199;48.832;9.182;2023-09-12T11:54:38;9.98;;;6.28;;
18146;SDS011;9199;48.832;9.182;2023-09-12T11:57:06;11.73;;;6.20;;
18146;SDS011;9199;48.832;9.182;2023-09-12T11:59:37;11.25;;;5.97;;
18146;SDS011;9199;48.832;9.182;2023-09-12T12:02:06;10.23;;;6.22;;
18146;SDS011;9199;48.832;9.182;2023-09-12T12:04:33;9.55;;;6.20;;
18146;SDS011;9199;48.832;9.182;2023-09-12T12:07:01;9.82;;;6.20;;
18146;SDS011;9199;48.832;9.182;2023-09-12T12:09:29;10.10;;;5.80;;
18146;SDS011;9199;48.832;9.182;2023-09-12T12:11:56;9.57;;;5.90;;
18146;SDS011;9199;48.832;9.182;2023-09-12T12:14:26;9.00;;;6.00;;
18146;SDS011;9199;48.832;9.182;2023-09-12T12:16:54;12.57;;;6.40;;
18146;SDS011;9199;48.832;9.182;2023-09-12T12:19:21;9.32;;;6.07;;
18146;SDS011;9199;48.832;9.182;2023-09-12T12:21:48;10.27;;;6.20;;
18146;SDS011;9199;48.832;9.182;2023-09-12T12:24:15;9.15;;;5.80;;
18146;SDS011;9199;48.832;9.182;2023-09-12T12:26:42;10.15;;;6.22;;
18146;SDS011;9199;48.832;9.182;2023-09-12T12:29:09;11.75;;;5.72;;
18146;SDS011;9199;48.832;9.182;2023-09-12T12:31:38;12.35;;;6.10;;
18146;SDS011;9199;48.832;9.182;2023-09-12T12:34:06;8.87;;;5.67;;
18146;SDS011;9199;48.832;9.182;2023-09-12T12:36:33;13.32;;;5.90;;
18146;SDS011;9199;48.832;9.182;2023-09-12T12:39:07;10.93;;;6.00;;
18146;SDS011;9199;48.832;9.182;2023-09-12T12:41:37;10.18;;;5.70;;
18146;SDS011;9199;48.832;9.182;2023-09-12T12:44:04;10.88;;;5.90;;
18146;SDS011;9199;48.832;9.182;2023-09-12T12:46:31;8.03;;;5.77;;
18146;SDS011;9199;48.832;9.182;2023-09-12T12:48:58;11.35;;;6.15;;
18146;SDS011;9199;48.832;9.182;2023-09-12T12:51:26;13.70;;;5.95;;
18146;SDS011;9199;48.832;9.182;2023-09-12T12:53:55;12.32;;;5.88;;
18146;SDS011;9199;48.832;9.182;2023-09-12T12:56:30;12.30;;;6.15;;
18146;SDS011;9199;48.832;9.182;2023-09-12T12:58:57;10.33;;;5.67;;
18146;SDS011;9199;48.832;9.182;2023-09-12T13:01:27;10.18;;;5.70;;
18146;SDS011;9199;48.832;9.182;2023-09-12T13:03:54;10.13;;;5.90;;
18146;SDS011;9199;48.832;9.182;2023-09-12T13:06:22;9.80;;;6.03;;
18146;SDS011;9199;48.832;9.182;2023-09-12T13:08:51;9.43;;;6.13;;
18146;SDS011;9199;48.832;9.182;2023-09-12T13:11:18;10.97;;;6.00;;
18146;SDS011;9199;48.832;9.182;2023-09-12T13:13:44;10.25;;;6.18;;
18146;SDS011;9199;48.832;9.182;2023-09-12T13:16:13;9.85;;;6.13;;
18146;SDS011;9199;48.832;9.182;2023-09-12T13:18:41;10.57;;;6.10;;
18146;SDS011;9199;48.832;9.182;2023-09-12T13:21:08;10.03;;;6.17;;
18146;SDS011;9199;48.832;9.182;2023-09-12T13:23:35;8.80;;;5.65;;
18146;SDS011;9199;48.832;9.182;2023-09-12T13:26:08;11.90;;;6.00;;
18146;SDS011;9199;48.832;9.182;2023-09-12T13:28:35;13.73;;;6.32;;
18146;SDS011;9199;48.832;9.182;2023-09-12T13:31:03;10.27;;;6.40;;
18146;SDS011;9199;48.832;9.182;2023-09-12T13:33:30;10.03;;;6.37;;
18146;SDS011;9199;48.832;9.182;2023-09-12T13:35:56;11.40;;;6.10;;
18146;SDS011;9199;48.832;9.182;2023-09-12T13:38:23;11.15;;;6.00;;
18146;SDS011;9199;48.832;9.182;2023-09-12T13:40:50;9.95;;;6.30;;
18146;SDS011;9199;48.832;9.182;2023-09-12T13:43:18;9.73;;;6.30;;
18146;SDS011;9199;48.832;9.182;2023-09-12T13:45:45;7.97;;;5.93;;
18146;SDS011;9199;48.832;9.182;2023-09-12T13:48:12;15.20;;;6.40;;
18146;SDS011;9199;48.832;9.182;2023-09-12T13:50:39;12.55;;;5.82;;
18146;SDS011;9199;48.832;9.182;2023-09-12T13:53:08;9.45;;;5.95;;
18146;SDS011;9199;48.832;9.182;2023-09-12T13:55:35;11.35;;;6.40;;
18146;SDS011;9199;48.832;9.182;2023-09-12T13:58:03;9.27;;;6.00;;
18146;SDS011;9199;48.832;9.182;2023-09-12T14:00:32;8.30;;;5.80;;
18146;SDS011;9199;48.832;9.182;2023-09-12T14:03:00;7.70;;;5.85;;
18146;SDS011;9199;48.832;9.182;2023-09-12T14:05:27;11.75;;;6.20;;
18146;SDS011;9199;48.832;9.182;2023-09-12T14:07:54;11.45;;;6.38;;
18146;SDS011;9199;48.832;9.182;2023-09-12T14:10:21;8.43;;;5.90;;
18146;SDS011;9199;48.832;9.182;2023-09-12T14:12:47;9.85;;;6.60;;
18146;SDS011;9199;48.832;9.182;2023-09-12T14:15:14;12.15;;;6.43;;
18146;SDS011;9199;48.832;9.182;2023-09-12T14:17:42;8.05;;;6.10;;
18146;SDS011;9199;48.832;9.182;2023-09-12T14:20:09;10.05;;;6.30;;
18146;SDS011;9199;48.832;9.182;2023-09-12T14:22:40;9.60;;;5.70;;
18146;SDS011;9199;48.832;9.182;2023-09-12T14:25:07;10.40;;;6.20;;
18146;SDS011;9199;48.832;9.182;2023-09-12T14:27:34;11.48;;;6.28;;
18146;SDS011;9199;48.832;9.182;2023-09-12T14:30:01;8.63;;;6.05;;
18146;SDS011;9199;48.832;9.182;2023-09-12T14:32:29;12.07;;;6.50;;
18146;SDS011;9199;48.832;9.182;2023-09-12T14:34:57;10.77;;;6.50;;
18146;SDS011;9199;48.832;9.182;2023-09-12T14:37:24;13.25;;;6.53;;
18146;SDS011;9199;48.832;9.182;2023-09-12T14:39:52;13.23;;;6.57;;
18146;SDS011;9199;48.832;9.182;2023-09-12T14:42:20;11.18;;;6.03;;
18146;SDS011;9199;48.832;9.182;2023-09-12T14:44:47;11.45;;;6.30;;
18146;SDS011;9199;48.832;9.182;2023-09-12T14:47:13;8.77;;;6.50;;
18146;SDS011;9199;48.832;9.182;2023-09-12T14:49:40;10.15;;;6.15;;
18146;SDS011;9199;48.832;9.182;2023-09-12T14:52:08;13.20;;;6.50;;
18146;SDS011;9199;48.832;9.182;2023-09-12T14:54:35;11.95;;;6.65;;
18146;SDS011;9199;48.832;9.182;2023-09-12T14:57:02;12.55;;;5.82;;
18146;SDS011;9199;48.832;9.182;2023-09-12T14:59:29;11.03;;;6.00;;
18146;SDS011;9199;48.832;9.182;2023-09-12T15:01:55;11.27;;;6.72;;
18146;SDS011;9199;48.832;9.182;2023-09-12T15:04:22;10.23;;;5.63;;
18146;SDS011;9199;48.832;9.182;2023-09-12T15:06:50;11.80;;;6.45;;
18146;SDS011;9199;48.832;9.182;2023-09-12T15:09:18;11.68;;;6.25;;
18146;SDS011;9199;48.832;9.182;2023-09-12T15:11:45;32.93;;;8.10;;
18146;SDS011;9199;48.832;9.182;2023-09-12T15:14:12;20.25;;;7.40;;
18146;SDS011;9199;48.832;9.182;2023-09-12T15:16:38;22.00;;;7.72;;
18146;SDS011;9199;48.832;9.182;2023-09-12T15:19:05;12.57;;;6.57;;
18146;SDS011;9199;48.832;9.182;2023-09-12T15:21:32;8.07;;;5.60;;
18146;SDS011;9199;48.832;9.182;2023-09-12T15:23:58;11.23;;;6.00;;
18146;SDS011;9199;48.832;9.182;2023-09-12T15:26:26;12.35;;;6.25;;
18146;SDS011;9199;48.832;9.182;2023-09-12T15:28:54;9.68;;;6.15;;
18146;SDS011;9199;48.832;9.182;2023-09-12T15:31:20;10.85;;;6.32;;
18146;SDS011;9199;48.832;9.182;2023-09-12T15:33:47;12.57;;;6.53;;
18146;SDS011;9199;48.832;9.182;2023-09-12T15:36:14;9.30;;;6.00;;
18146;SDS011;9199;48.832;9.182;2023-09-12T15:38:41;10.55;;;6.00;;
18146;SDS011;9199;48.832;9.182;2023-09-12T15:41:08;9.93;;;6.03;;
18146;SDS011;9199;48.832;9.182;2023-09-12T15:43:36;11.05;;;6.70;;
18146;SDS011;9199;48.832;9.182;2023-09-12T15:46:03;12.02;;;6.47;;
18146;SDS011;9199;48.832;9.182;2023-09-12T15:48:29;10.23;;;5.90;;
18146;SDS011;9199;48.832;9.182;2023-09-12T15:50:56;13.50;;;6.18;;
18146;SDS011;9199;48.832;9.182;2023-09-12T15:53:23;9.55;;;6.00;;